Rockefeller, Pennsylvania
Current Conditions -  °F | °C
As of 4:53 PM on Wednesday 28 Jan 2015 (Local Time) from KSEG Reporting Station
Clear Clear  
Wind Chill: 26°   Ceiling: Unl
Heat Index: 32°   Visibility: 10mi
Dew Point:   Wind: 6mph
Humidity: 31%   Direction: 310°NW
Pressure: 30.23"   Gusts: NA
Location:  40.83°N, 76.761°W
Report Text: KSEG 282153Z AUTO 31005KT 10SM CLR 00/M16 A3023 RMK AO2 SLP244 T00001156
Loading
Personal Weather Stations






























Interactive Weather Map New forecast layout! Learn more

10-Day Weather Forecast

Advertisements
Track Severe Weather on mobile